ソチ の空港の天気 - METARとTAF

ソチ空港 ( URSS / AER ) - ロシア ソチ
飛行場実況気象(Metar)
観測時間05/26 03:30 MSK (05/26 00:30 UTC)
風向・風速南東 3m/s
視程9000m
天気現象弱いしゅう雨
全天の8割程度の雲 雲底高度 370m
全天を覆う雲 雲底高度 910m
気温13℃
湿度88%
気圧1021hPa
METARURSS 260030Z 13003MPS 9000 -SHRA BKN012 OVC030CB 13/11 Q1021 WS ALL RWY R06/010070 R02/010070 NOSIG RMK R02/11003G07MPS MT OBSC QFE765
過去の天気等 Google飛行場航空写真 Wunderground天気予報

過去48時間のMETAR

飛行場予報(TAF)
発表時間: 5/26 01:57 MSK (5/25 22:57 UTC)
予報対象時間: 26日3時 MSK ~ 27日3時 MSK
風向・風速南東 8m/s 瞬間風速 13m/s
視程6000m
天気現象弱いしゅう雨
全天の8割程度の雲 雲底高度 240m
全天の8割程度の積乱雲 雲底高度 610m
全天を覆う雲 雲底高度 3050m
26日3時 MSK ~ 26日9時 MSK に一時的に
風向・風速不定 10m/s 瞬間風速 15m/s
視程2000m
天気現象雷雨 もや
全天の8割程度の雲 雲底高度 150m
全天の8割程度の積乱雲 雲底高度 610m
全天を覆う雲 雲底高度 3050m
26日9時 MSK から
風向・風速南南東 6m/s 瞬間風速 11m/s
視程10km以上
全天の4割程度の積乱雲 雲底高度 760m
全天の4割程度の雲 雲底高度 3050m
26日13時 MSK ~ 26日15時 MSK に一時的に
風向・風速南南西 5m/s 瞬間風速 10m/s
26日15時 MSK ~ 26日17時 MSK に徐々に
風向・風速西 5m/s 瞬間風速 10m/s
少しの雲 雲底高度 910m
26日20時 MSK ~ 26日21時 MSK に徐々に
風向・風速北東 5m/s
全天の4割程度の雲 雲底高度 3050m
TAF URSS 252257Z 2600/2624 13008G13MPS 6000 -SHRA BKN008 BKN020CB OVC100
TEMPO 2600/2606 VRB10G15MPS 2000 TSRA BR BKN005 BKN020CB OVC100
FM260600 16006G11MPS 9999 SCT025CB SCT100
TEMPO 2610/2612 21005G10MPS
BECMG 2612/2614 28005G10MPS FEW030
BECMG 2617/2618 05005MPS SCT100